sensor_id;sensor_type;location;lat;lon;timestamp;temperature;humidity
19248;DHT22;9758;48.640;8.148;2023-04-24T09:09:13;13.10;52.40
19248;DHT22;9758;48.640;8.148;2023-04-24T09:11:42;13.20;52.30
19248;DHT22;9758;48.640;8.148;2023-04-24T09:14:11;13.20;52.30
19248;DHT22;9758;48.640;8.148;2023-04-24T09:16:54;13.40;52.40
19248;DHT22;9758;48.640;8.148;2023-04-24T09:19:40;13.50;52.00
19248;DHT22;9758;48.640;8.148;2023-04-24T09:22:21;13.50;52.10
19248;DHT22;9758;48.640;8.148;2023-04-24T09:28:16;13.80;52.10
19248;DHT22;9758;48.640;8.148;2023-04-24T09:30:42;13.90;51.90
19248;DHT22;9758;48.640;8.148;2023-04-24T09:33:10;14.00;51.70
19248;DHT22;9758;48.640;8.148;2023-04-24T09:35:55;14.00;51.30
19248;DHT22;9758;48.640;8.148;2023-04-24T09:39:19;14.00;51.50
19248;DHT22;9758;48.640;8.148;2023-04-24T09:42:26;13.90;51.30
19248;DHT22;9758;48.640;8.148;2023-04-24T10:17:30;13.60;51.50
19248;DHT22;9758;48.640;8.148;2023-04-24T11:34:12;13.80;51.40
19248;DHT22;9758;48.640;8.148;2023-04-24T11:37:01;13.70;51.20
19248;DHT22;9758;48.640;8.148;2023-04-24T11:39:36;13.70;51.50
19248;DHT22;9758;48.640;8.148;2023-04-24T11:42:03;13.60;51.40
19248;DHT22;9758;48.640;8.148;2023-04-24T11:44:34;13.50;51.40
19248;DHT22;9758;48.640;8.148;2023-04-24T11:47:15;13.50;51.60
19248;DHT22;9758;48.640;8.148;2023-04-24T11:49:53;13.50;51.60
19248;DHT22;9758;48.640;8.148;2023-04-24T11:52:37;13.50;51.60
19248;DHT22;9758;48.640;8.148;2023-04-24T11:55:08;13.50;51.60
19248;DHT22;9758;48.640;8.148;2023-04-24T11:57:50;13.50;51.60
19248;DHT22;9758;48.640;8.148;2023-04-24T12:00:20;13.50;51.60
19248;DHT22;9758;48.640;8.148;2023-04-24T12:03:08;13.50;51.60
19248;DHT22;9758;48.640;8.148;2023-04-24T12:06:07;13.50;51.70
19248;DHT22;9758;48.640;8.148;2023-04-24T12:08:46;13.50;51.70
19248;DHT22;9758;48.640;8.148;2023-04-24T12:11:25;13.40;51.60
19248;DHT22;9758;48.640;8.148;2023-04-24T12:14:10;13.40;51.70
19248;DHT22;9758;48.640;8.148;2023-04-24T12:16:52;13.40;51.70
19248;DHT22;9758;48.640;8.148;2023-04-24T12:19:38;13.40;51.80
19248;DHT22;9758;48.640;8.148;2023-04-24T12:25:41;13.50;51.80
19248;DHT22;9758;48.640;8.148;2023-04-24T12:28:13;13.60;51.90
19248;DHT22;9758;48.640;8.148;2023-04-24T12:31:00;13.70;51.80
19248;DHT22;9758;48.640;8.148;2023-04-24T12:33:42;13.70;51.70
19248;DHT22;9758;48.640;8.148;2023-04-24T12:36:24;13.70;51.70
19248;DHT22;9758;48.640;8.148;2023-04-24T12:39:14;13.70;51.60
19248;DHT22;9758;48.640;8.148;2023-04-24T12:48:29;13.50;51.30
19248;DHT22;9758;48.640;8.148;2023-04-24T12:51:27;13.50;51.50
19248;DHT22;9758;48.640;8.148;2023-04-24T12:54:02;13.40;51.50
19248;DHT22;9758;48.640;8.148;2023-04-24T12:56:43;13.40;51.60
19248;DHT22;9758;48.640;8.148;2023-04-24T12:59:24;13.40;51.60
19248;DHT22;9758;48.640;8.148;2023-04-24T13:01:56;13.40;51.60
19248;DHT22;9758;48.640;8.148;2023-04-24T13:21:28;13.80;51.40
19248;DHT22;9758;48.640;8.148;2023-04-24T13:24:12;13.90;51.50
19248;DHT22;9758;48.640;8.148;2023-04-24T13:26:42;14.10;51.50
19248;DHT22;9758;48.640;8.148;2023-04-24T13:29:24;14.20;51.30
19248;DHT22;9758;48.640;8.148;2023-04-24T13:32:10;14.30;51.10
19248;DHT22;9758;48.640;8.148;2023-04-24T13:34:57;14.40;51.10
19248;DHT22;9758;48.640;8.148;2023-04-24T13:37:57;14.40;51.00
19248;DHT22;9758;48.640;8.148;2023-04-24T13:40:31;14.40;50.60
19248;DHT22;9758;48.640;8.148;2023-04-24T13:43:13;14.40;50.80
19248;DHT22;9758;48.640;8.148;2023-04-24T13:45:42;14.30;50.70
19248;DHT22;9758;48.640;8.148;2023-04-24T13:48:25;14.30;50.80
19248;DHT22;9758;48.640;8.148;2023-04-24T13:50:54;14.20;50.80
19248;DHT22;9758;48.640;8.148;2023-04-24T14:03:15;14.20;51.20
19248;DHT22;9758;48.640;8.148;2023-04-24T14:05:57;14.20;51.10
19248;DHT22;9758;48.640;8.148;2023-04-24T14:08:36;14.30;51.20
19248;DHT22;9758;48.640;8.148;2023-04-24T14:11:20;14.30;51.10
19248;DHT22;9758;48.640;8.148;2023-04-24T14:13:51;14.30;51.10
19248;DHT22;9758;48.640;8.148;2023-04-24T14:16:32;14.40;51.10
19248;DHT22;9758;48.640;8.148;2023-04-24T14:28:28;14.40;51.10
19248;DHT22;9758;48.640;8.148;2023-04-24T14:30:56;14.40;51.20
19248;DHT22;9758;48.640;8.148;2023-04-24T14:33:37;14.60;51.30
19248;DHT22;9758;48.640;8.148;2023-04-24T14:50:01;15.00;50.60
19248;DHT22;9758;48.640;8.148;2023-04-24T14:52:36;15.10;50.80
19248;DHT22;9758;48.640;8.148;2023-04-24T14:55:35;15.10;50.60
19248;DHT22;9758;48.640;8.148;2023-04-24T14:58:18;15.20;50.60
19248;DHT22;9758;48.640;8.148;2023-04-24T15:00:47;15.20;50.40
19248;DHT22;9758;48.640;8.148;2023-04-24T15:03:20;15.20;50.40
19248;DHT22;9758;48.640;8.148;2023-04-24T15:12:06;14.90;50.10
19248;DHT22;9758;48.640;8.148;2023-04-24T15:14:47;14.70;50.40
19248;DHT22;9758;48.640;8.148;2023-04-24T15:17:28;14.60;50.80
19248;DHT22;9758;48.640;8.148;2023-04-24T15:19:56;14.50;50.90
19248;DHT22;9758;48.640;8.148;2023-04-24T15:22:34;14.40;51.10
19248;DHT22;9758;48.640;8.148;2023-04-24T15:25:20;14.40;51.20
19248;DHT22;9758;48.640;8.148;2023-04-24T15:41:13;15.30;52.00
19248;DHT22;9758;48.640;8.148;2023-04-24T15:43:40;15.60;51.70
19248;DHT22;9758;48.640;8.148;2023-04-24T15:46:09;16.00;52.20
19248;DHT22;9758;48.640;8.148;2023-04-24T15:49:01;16.70;52.70
19248;DHT22;9758;48.640;8.148;2023-04-24T15:51:44;17.60;51.30
19248;DHT22;9758;48.640;8.148;2023-04-24T15:54:27;18.10;50.30
19248;DHT22;9758;48.640;8.148;2023-04-24T15:57:25;18.30;49.70
19248;DHT22;9758;48.640;8.148;2023-04-24T16:00:19;18.40;49.40
19248;DHT22;9758;48.640;8.148;2023-04-24T16:03:32;18.40;48.90
19248;DHT22;9758;48.640;8.148;2023-04-24T16:06:40;18.60;50.60
19248;DHT22;9758;48.640;8.148;2023-04-24T16:09:09;19.70;51.10
19248;DHT22;9758;48.640;8.148;2023-04-24T16:11:41;20.50;49.60
19248;DHT22;9758;48.640;8.148;2023-04-24T16:21:23;20.80;46.90
19248;DHT22;9758;48.640;8.148;2023-04-24T16:24:08;20.40;46.80
19248;DHT22;9758;48.640;8.148;2023-04-24T16:26:51;20.00;47.00
19248;DHT22;9758;48.640;8.148;2023-04-24T16:29:45;19.60;47.20
19248;DHT22;9758;48.640;8.148;2023-04-24T16:32:29;19.20;47.50
19248;DHT22;9758;48.640;8.148;2023-04-24T16:35:34;18.80;47.60
19248;DHT22;9758;48.640;8.148;2023-04-24T16:38:22;18.40;47.80
19248;DHT22;9758;48.640;8.148;2023-04-24T16:41:28;18.10;48.20
19248;DHT22;9758;48.640;8.148;2023-04-24T16:44:11;17.80;48.30
19248;DHT22;9758;48.640;8.148;2023-04-24T16:47:01;17.60;48.70
19248;DHT22;9758;48.640;8.148;2023-04-24T16:49:45;17.50;48.90
19248;DHT22;9758;48.640;8.148;2023-04-24T16:52:37;17.40;49.10
19248;DHT22;9758;48.640;8.148;2023-04-24T17:14:48;16.80;49.00
19248;DHT22;9758;48.640;8.148;2023-04-24T17:17:33;16.70;49.00
19248;DHT22;9758;48.640;8.148;2023-04-24T17:20:01;16.70;49.20
19248;DHT22;9758;48.640;8.148;2023-04-24T17:22:29;16.80;49.10
19248;DHT22;9758;48.640;8.148;2023-04-24T17:24:59;16.90;49.70
19248;DHT22;9758;48.640;8.148;2023-04-24T17:27:30;17.30;50.30
19248;DHT22;9758;48.640;8.148;2023-04-24T17:30:16;18.00;50.50
19248;DHT22;9758;48.640;8.148;2023-04-24T17:33:01;18.90;50.20
19248;DHT22;9758;48.640;8.148;2023-04-24T17:35:30;19.60;48.90
19248;DHT22;9758;48.640;8.148;2023-04-24T17:37:59;20.10;48.20
19248;DHT22;9758;48.640;8.148;2023-04-24T17:40:28;20.60;47.20
19248;DHT22;9758;48.640;8.148;2023-04-24T17:43:02;20.60;46.80
19248;DHT22;9758;48.640;8.148;2023-04-24T17:45:32;20.40;46.10
19248;DHT22;9758;48.640;8.148;2023-04-24T17:48:03;20.10;46.30
19248;DHT22;9758;48.640;8.148;2023-04-24T17:50:41;19.80;46.00
19248;DHT22;9758;48.640;8.148;2023-04-24T17:53:13;19.40;46.20
19248;DHT22;9758;48.640;8.148;2023-04-24T17:55:56;19.00;46.30
19248;DHT22;9758;48.640;8.148;2023-04-24T17:58:46;18.60;46.60
19248;DHT22;9758;48.640;8.148;2023-04-24T18:04:55;17.90;47.40
19248;DHT22;9758;48.640;8.148;2023-04-24T18:07:39;17.70;47.40
19248;DHT22;9758;48.640;8.148;2023-04-24T18:10:22;17.50;47.50
19248;DHT22;9758;48.640;8.148;2023-04-24T18:12:53;17.30;47.60
19248;DHT22;9758;48.640;8.148;2023-04-24T18:15:21;17.00;47.80
19248;DHT22;9758;48.640;8.148;2023-04-24T18:17:48;16.80;47.80
19248;DHT22;9758;48.640;8.148;2023-04-24T18:20:17;16.70;48.00
19248;DHT22;9758;48.640;8.148;2023-04-24T18:22:45;16.60;48.20
19248;DHT22;9758;48.640;8.148;2023-04-24T18:25:12;16.50;48.30
19248;DHT22;9758;48.640;8.148;2023-04-24T18:27:39;16.40;48.20
19248;DHT22;9758;48.640;8.148;2023-04-24T18:30:08;16.30;48.80
19248;DHT22;9758;48.640;8.148;2023-04-24T18:32:35;16.10;48.30
19248;DHT22;9758;48.640;8.148;2023-04-24T18:37:39;15.90;48.30
19248;DHT22;9758;48.640;8.148;2023-04-24T18:40:07;15.80;48.30
19248;DHT22;9758;48.640;8.148;2023-04-24T18:42:44;15.70;48.50
19248;DHT22;9758;48.640;8.148;2023-04-24T18:45:11;15.50;48.60
19248;DHT22;9758;48.640;8.148;2023-04-24T18:47:38;15.50;48.70
19248;DHT22;9758;48.640;8.148;2023-04-24T18:50:06;15.40;48.70
19248;DHT22;9758;48.640;8.148;2023-04-24T18:52:33;15.30;48.70
19248;DHT22;9758;48.640;8.148;2023-04-24T18:55:02;15.20;48.80
19248;DHT22;9758;48.640;8.148;2023-04-24T18:57:29;15.10;48.90
19248;DHT22;9758;48.640;8.148;2023-04-24T18:59:55;15.10;48.90
19248;DHT22;9758;48.640;8.148;2023-04-24T19:02:22;15.00;48.90
19248;DHT22;9758;48.640;8.148;2023-04-24T19:04:49;15.00;48.90
19248;DHT22;9758;48.640;8.148;2023-04-24T19:07:31;14.90;49.10
19248;DHT22;9758;48.640;8.148;2023-04-24T19:09:58;14.80;49.10
19248;DHT22;9758;48.640;8.148;2023-04-24T19:12:26;14.70;49.10
19248;DHT22;9758;48.640;8.148;2023-04-24T19:14:53;14.60;49.20
19248;DHT22;9758;48.640;8.148;2023-04-24T19:17:20;14.60;49.20
19248;DHT22;9758;48.640;8.148;2023-04-24T19:19:49;14.60;49.40
19248;DHT22;9758;48.640;8.148;2023-04-24T19:22:16;14.50;49.30
19248;DHT22;9758;48.640;8.148;2023-04-24T19:24:43;14.50;49.20
19248;DHT22;9758;48.640;8.148;2023-04-24T19:27:10;14.50;49.30
19248;DHT22;9758;48.640;8.148;2023-04-24T19:29:41;14.50;49.30
19248;DHT22;9758;48.640;8.148;2023-04-24T19:32:07;14.50;49.30
19248;DHT22;9758;48.640;8.148;2023-04-24T19:34:34;14.40;49.80
19248;DHT22;9758;48.640;8.148;2023-04-24T19:37:01;14.50;49.30
19248;DHT22;9758;48.640;8.148;2023-04-24T19:39:28;14.50;49.30
19248;DHT22;9758;48.640;8.148;2023-04-24T19:41:56;14.50;49.20
19248;DHT22;9758;48.640;8.148;2023-04-24T19:44:30;14.50;49.20
19248;DHT22;9758;48.640;8.148;2023-04-24T19:46:58;14.40;49.10
19248;DHT22;9758;48.640;8.148;2023-04-24T19:49:25;14.40;49.10
19248;DHT22;9758;48.640;8.148;2023-04-24T19:51:52;14.40;49.10
19248;DHT22;9758;48.640;8.148;2023-04-24T19:54:19;14.40;49.10
19248;DHT22;9758;48.640;8.148;2023-04-24T19:56:46;14.40;49.20
19248;DHT22;9758;48.640;8.148;2023-04-24T19:59:12;14.50;49.30
19248;DHT22;9758;48.640;8.148;2023-04-24T20:01:39;14.50;49.30
19248;DHT22;9758;48.640;8.148;2023-04-24T20:04:09;14.50;49.30
19248;DHT22;9758;48.640;8.148;2023-04-24T20:06:36;14.40;49.20
19248;DHT22;9758;48.640;8.148;2023-04-24T20:09:03;14.40;49.20
19248;DHT22;9758;48.640;8.148;2023-04-24T20:11:31;14.40;49.20
19248;DHT22;9758;48.640;8.148;2023-04-24T20:13:57;14.40;49.20
19248;DHT22;9758;48.640;8.148;2023-04-24T20:16:26;14.40;49.30
19248;DHT22;9758;48.640;8.148;2023-04-24T20:18:52;14.40;49.20
19248;DHT22;9758;48.640;8.148;2023-04-24T20:21:21;14.40;49.20
19248;DHT22;9758;48.640;8.148;2023-04-24T20:23:47;14.40;49.30
19248;DHT22;9758;48.640;8.148;2023-04-24T20:26:16;14.30;49.30
19248;DHT22;9758;48.640;8.148;2023-04-24T20:28:43;14.30;49.30
19248;DHT22;9758;48.640;8.148;2023-04-24T20:31:09;14.30;49.40
19248;DHT22;9758;48.640;8.148;2023-04-24T20:33:36;14.30;49.50
19248;DHT22;9758;48.640;8.148;2023-04-24T20:36:06;14.30;49.40
19248;DHT22;9758;48.640;8.148;2023-04-24T20:38:35;14.20;49.40
19248;DHT22;9758;48.640;8.148;2023-04-24T20:41:02;14.20;49.50
19248;DHT22;9758;48.640;8.148;2023-04-24T20:43:30;14.20;49.60
19248;DHT22;9758;48.640;8.148;2023-04-24T20:45:56;14.20;49.60
19248;DHT22;9758;48.640;8.148;2023-04-24T20:48:23;14.20;49.70
19248;DHT22;9758;48.640;8.148;2023-04-24T20:50:50;14.20;49.70
19248;DHT22;9758;48.640;8.148;2023-04-24T20:53:18;14.20;49.70
19248;DHT22;9758;48.640;8.148;2023-04-24T20:55:54;14.20;49.70
19248;DHT22;9758;48.640;8.148;2023-04-24T20:58:21;14.20;49.80
19248;DHT22;9758;48.640;8.148;2023-04-24T21:00:49;14.10;49.70
19248;DHT22;9758;48.640;8.148;2023-04-24T21:03:16;14.10;49.80
19248;DHT22;9758;48.640;8.148;2023-04-24T21:05:43;14.10;49.80
19248;DHT22;9758;48.640;8.148;2023-04-24T21:08:09;14.10;49.90
19248;DHT22;9758;48.640;8.148;2023-04-24T21:10:37;14.00;49.90
19248;DHT22;9758;48.640;8.148;2023-04-24T21:13:05;14.00;49.90
19248;DHT22;9758;48.640;8.148;2023-04-24T21:15:32;14.00;50.00
19248;DHT22;9758;48.640;8.148;2023-04-24T21:17:59;14.00;50.00
19248;DHT22;9758;48.640;8.148;2023-04-24T21:20:26;14.00;50.00
19248;DHT22;9758;48.640;8.148;2023-04-24T21:22:52;13.90;50.00
19248;DHT22;9758;48.640;8.148;2023-04-24T21:25:19;13.90;50.00
19248;DHT22;9758;48.640;8.148;2023-04-24T21:27:46;13.90;50.10
19248;DHT22;9758;48.640;8.148;2023-04-24T21:30:14;13.90;50.10
19248;DHT22;9758;48.640;8.148;2023-04-24T21:32:41;13.90;50.10
19248;DHT22;9758;48.640;8.148;2023-04-24T21:35:08;13.90;50.20
19248;DHT22;9758;48.640;8.148;2023-04-24T21:37:35;13.90;50.20
19248;DHT22;9758;48.640;8.148;2023-04-24T21:40:04;13.80;50.20
19248;DHT22;9758;48.640;8.148;2023-04-24T21:42:31;13.80;50.10
19248;DHT22;9758;48.640;8.148;2023-04-24T21:44:58;13.80;50.20
19248;DHT22;9758;48.640;8.148;2023-04-24T21:47:26;13.80;50.20
19248;DHT22;9758;48.640;8.148;2023-04-24T21:49:53;13.70;50.10
19248;DHT22;9758;48.640;8.148;2023-04-24T21:52:20;13.70;50.10
19248;DHT22;9758;48.640;8.148;2023-04-24T21:54:46;13.70;50.20
19248;DHT22;9758;48.640;8.148;2023-04-24T21:57:13;13.70;50.10
19248;DHT22;9758;48.640;8.148;2023-04-24T21:59:40;13.60;50.10
19248;DHT22;9758;48.640;8.148;2023-04-24T22:02:07;13.60;50.20
19248;DHT22;9758;48.640;8.148;2023-04-24T22:04:35;13.60;50.10
19248;DHT22;9758;48.640;8.148;2023-04-24T22:07:02;13.60;50.00
19248;DHT22;9758;48.640;8.148;2023-04-24T22:09:29;13.50;50.10
19248;DHT22;9758;48.640;8.148;2023-04-24T22:11:55;13.40;50.10
19248;DHT22;9758;48.640;8.148;2023-04-24T22:14:22;13.40;50.30
19248;DHT22;9758;48.640;8.148;2023-04-24T22:16:49;13.40;50.40
19248;DHT22;9758;48.640;8.148;2023-04-24T22:19:16;13.40;50.40
19248;DHT22;9758;48.640;8.148;2023-04-24T22:21:45;13.30;50.30
19248;DHT22;9758;48.640;8.148;2023-04-24T22:24:26;13.30;50.40
19248;DHT22;9758;48.640;8.148;2023-04-24T22:26:53;13.30;50.40
19248;DHT22;9758;48.640;8.148;2023-04-24T22:29:20;13.40;50.30
19248;DHT22;9758;48.640;8.148;2023-04-24T22:31:46;13.40;50.30
19248;DHT22;9758;48.640;8.148;2023-04-24T22:34:13;13.40;50.30
19248;DHT22;9758;48.640;8.148;2023-04-24T22:36:41;13.40;50.20
19248;DHT22;9758;48.640;8.148;2023-04-24T22:39:09;13.40;50.20
19248;DHT22;9758;48.640;8.148;2023-04-24T22:41:40;13.40;50.10
19248;DHT22;9758;48.640;8.148;2023-04-24T22:44:06;13.40;50.20
19248;DHT22;9758;48.640;8.148;2023-04-24T22:46:33;13.40;50.20
19248;DHT22;9758;48.640;8.148;2023-04-24T22:49:00;13.40;50.20
19248;DHT22;9758;48.640;8.148;2023-04-24T22:51:27;13.40;50.10
19248;DHT22;9758;48.640;8.148;2023-04-24T22:53:57;13.30;50.20
19248;DHT22;9758;48.640;8.148;2023-04-24T22:56:26;13.30;50.30
19248;DHT22;9758;48.640;8.148;2023-04-24T22:58:52;13.30;50.30
19248;DHT22;9758;48.640;8.148;2023-04-24T23:01:19;13.30;50.30
19248;DHT22;9758;48.640;8.148;2023-04-24T23:03:46;13.20;50.20
19248;DHT22;9758;48.640;8.148;2023-04-24T23:06:13;13.20;50.20
19248;DHT22;9758;48.640;8.148;2023-04-24T23:08:40;13.20;50.20
19248;DHT22;9758;48.640;8.148;2023-04-24T23:11:06;13.20;50.20
19248;DHT22;9758;48.640;8.148;2023-04-24T23:13:35;13.20;50.30
19248;DHT22;9758;48.640;8.148;2023-04-24T23:16:01;13.20;50.30
19248;DHT22;9758;48.640;8.148;2023-04-24T23:18:29;13.20;50.30
19248;DHT22;9758;48.640;8.148;2023-04-24T23:20:56;13.10;50.30
19248;DHT22;9758;48.640;8.148;2023-04-24T23:23:23;13.10;50.40
19248;DHT22;9758;48.640;8.148;2023-04-24T23:25:49;13.10;50.50
19248;DHT22;9758;48.640;8.148;2023-04-24T23:28:16;13.10;50.50
19248;DHT22;9758;48.640;8.148;2023-04-24T23:30:44;13.10;50.60
19248;DHT22;9758;48.640;8.148;2023-04-24T23:33:11;13.10;50.50
19248;DHT22;9758;48.640;8.148;2023-04-24T23:35:38;13.10;50.50
19248;DHT22;9758;48.640;8.148;2023-04-24T23:38:05;13.10;50.50
19248;DHT22;9758;48.640;8.148;2023-04-24T23:40:31;13.10;50.40
19248;DHT22;9758;48.640;8.148;2023-04-24T23:42:58;13.10;50.40
19248;DHT22;9758;48.640;8.148;2023-04-24T23:45:25;13.20;50.50
19248;DHT22;9758;48.640;8.148;2023-04-24T23:47:53;13.10;50.30
19248;DHT22;9758;48.640;8.148;2023-04-24T23:50:21;13.00;50.40
19248;DHT22;9758;48.640;8.148;2023-04-24T23:52:47;13.00;50.50
19248;DHT22;9758;48.640;8.148;2023-04-24T23:55:14;13.00;50.60
19248;DHT22;9758;48.640;8.148;2023-04-24T23:57:41;13.00;50.60
